Time;durP1;ratioP1;P1;durP2;ratioP2;P2;SDS_P1;SDS_P2;PMS_P1;PMS_P2;Temp;Humidity;BMP_temperature;BMP_pressure;BME280_temperature;BME280_humidity;BME280_pressure;Samples;Min_cycle;Max_cycle;Signal;HPM_P1;HPM_P2
2022/07/20 00:00:09;;;;;;;6.07;3.05;;;;;;;26.69;31.13;99424.75;343378;28;1830;-77
2022/07/20 00:00:21;;;;;;;5.53;3.10;;;;;;;26.65;30.70;99422.56;343246;28;1805;-77
2022/07/20 00:00:34;;;;;;;5.00;3.40;;;;;;;26.67;30.66;99421.41;343426;28;2067;-77
2022/07/20 00:00:46;;;;;;;5.70;3.60;;;;;;;26.68;30.78;99416.91;344271;28;1476;-76
2022/07/20 00:00:58;;;;;;;6.75;3.72;;;;;;;26.64;31.38;99421.75;344846;28;1289;-76
2022/07/20 00:01:10;;;;;;;8.23;3.22;;;;;;;26.65;31.45;99422.56;344077;28;1229;-76
2022/07/20 00:01:22;;;;;;;6.95;3.10;;;;;;;26.64;31.16;99424.41;343765;28;1134;-76
2022/07/20 00:01:34;;;;;;;5.68;3.00;;;;;;;26.68;31.68;99420.44;343450;28;2134;-76
2022/07/20 00:01:47;;;;;;;5.25;3.13;;;;;;;26.72;31.66;99420.09;343759;28;1916;-76
2022/07/20 00:01:59;;;;;;;5.35;3.10;;;;;;;26.75;31.87;99417.13;343647;28;1237;-76
2022/07/20 00:02:11;;;;;;;4.63;3.20;;;;;;;26.77;31.42;99425.78;344124;28;1030;-76
2022/07/20 00:02:23;;;;;;;5.57;3.33;;;;;;;26.73;31.34;99413.78;343897;28;1197;-76
2022/07/20 00:02:36;;;;;;;8.40;3.28;;;;;;;26.59;31.17;99418.69;342805;28;1685;-76
2022/07/20 00:02:48;;;;;;;9.65;3.10;;;;;;;26.62;31.32;99423.72;344396;28;1716;-76
2022/07/20 00:03:04;;;;;;;8.55;3.10;;;;;;;26.66;31.34;99419.75;344438;28;2072;-76
2022/07/20 00:03:18;;;;;;;6.10;3.30;;;;;;;26.72;31.17;99420.91;342688;28;1083;-76
2022/07/20 00:03:30;;;;;;;4.88;3.25;;;;;;;26.69;31.12;99427.41;343232;28;1813;-76
2022/07/20 00:03:45;;;;;;;4.20;3.03;;;;;;;26.70;31.63;99417.56;343853;28;1734;-76
2022/07/20 00:03:57;;;;;;;4.32;3.00;;;;;;;26.75;31.16;99422.47;344260;28;1165;-76
2022/07/20 00:04:09;;;;;;;4.47;3.03;;;;;;;26.75;30.44;99422.47;345292;28;1058;-76
2022/07/20 00:04:21;;;;;;;5.30;3.15;;;;;;;26.77;30.64;99420.47;343718;28;1947;-76
2022/07/20 00:04:33;;;;;;;5.65;3.20;;;;;;;26.78;31.73;99417.63;343054;28;1804;-76
2022/07/20 00:04:45;;;;;;;7.20;3.17;;;;;;;26.80;31.75;99414.78;343688;28;1864;-76
2022/07/20 00:04:57;;;;;;;8.07;3.03;;;;;;;26.71;31.15;99421.94;345361;28;1321;-77
2022/07/20 00:05:09;;;;;;;6.03;3.08;;;;;;;26.75;30.74;99419.78;343870;28;1193;-76
2022/07/20 00:05:22;;;;;;;6.85;3.13;;;;;;;26.78;30.91;99427.44;343763;28;1164;-76
2022/07/20 00:05:34;;;;;;;6.22;3.20;;;;;;;26.82;30.98;99415.47;343568;28;1892;-76
2022/07/20 00:05:46;;;;;;;6.30;3.08;;;;;;;26.82;31.36;99418.13;345093;28;1659;-76
2022/07/20 00:05:58;;;;;;;4.43;2.92;;;;;;;26.84;31.69;99422.34;346245;28;1316;-76
2022/07/20 00:06:10;;;;;;;4.13;3.00;;;;;;;26.78;31.19;99422.13;346357;28;1160;-77
2022/07/20 00:06:22;;;;;;;5.25;3.00;;;;;;;26.79;30.96;99418.47;346418;28;1243;-76
2022/07/20 00:06:34;;;;;;;7.18;3.00;;;;;;;26.72;31.35;99412.91;344456;28;2189;-76
2022/07/20 00:06:46;;;;;;;7.05;2.90;;;;;;;26.66;31.17;99419.75;344623;28;1668;-77
2022/07/20 00:06:58;;;;;;;5.65;3.00;;;;;;;26.66;31.48;99418.91;345710;28;1312;-76
2022/07/20 00:07:10;;;;;;;6.20;3.10;;;;;;;26.61;30.93;99418.56;343957;28;1252;-76
2022/07/20 00:07:22;;;;;;;7.10;3.20;;;;;;;26.67;31.17;99416.06;344150;28;1046;-76
2022/07/20 00:07:34;;;;;;;8.10;3.17;;;;;;;26.65;31.49;99418.06;343288;28;1740;-76
2022/07/20 00:07:46;;;;;;;8.45;3.28;;;;;;;26.67;32.16;99421.41;343302;28;1836;-76
2022/07/20 00:07:58;;;;;;;8.55;3.50;;;;;;;26.64;31.16;99419.06;343635;28;1814;-76
2022/07/20 00:08:10;;;;;;;6.75;3.50;;;;;;;26.59;31.67;99421.38;344049;28;1046;-76
2022/07/20 00:11:30;;;;;;;9.35;3.22;;;;;;;26.73;31.35;99416.44;343481;28;1291;-76
2022/07/20 00:11:34;;;;;;;5.20;3.20;;;;;;;26.77;31.24;99407.13;340876;28;1867;-75
2022/07/20 00:11:46;;;;;;;5.05;3.25;;;;;;;26.80;32.16;99420.13;343882;28;1678;-76
2022/07/20 00:11:58;;;;;;;6.85;3.08;;;;;;;26.80;31.97;99415.66;343714;28;1151;-76
2022/07/20 00:12:10;;;;;;;6.82;3.22;;;;;;;26.82;31.64;99412.81;343358;28;1781;-76
2022/07/20 00:12:22;;;;;;;6.90;3.13;;;;;;;26.84;31.64;99417.00;343065;28;1777;-76
2022/07/20 00:12:35;;;;;;;6.93;3.20;;;;;;;26.85;32.08;99417.81;343887;28;1168;-76
2022/07/20 00:12:47;;;;;;;8.90;3.08;;;;;;;26.85;31.82;99416.00;344232;28;1727;-76
2022/07/20 00:12:59;;;;;;;7.88;3.03;;;;;;;26.78;31.38;99422.13;345020;28;1060;-76
2022/07/20 00:13:12;;;;;;;7.07;3.05;;;;;;;26.76;31.14;99418.78;344032;28;1375;-76
2022/07/20 00:13:24;;;;;;;4.88;2.90;;;;;;;26.76;32.20;99416.13;343643;28;1176;-76
2022/07/20 00:13:36;;;;;;;5.68;3.00;;;;;;;26.75;31.44;99417.13;343037;28;1914;-77
2022/07/20 00:13:52;;;;;;;6.05;3.15;;;;;;;26.76;32.26;99421.44;343856;28;1871;-76
2022/07/20 00:14:04;;;;;;;8.05;3.45;;;;;;;26.79;31.38;99421.97;343799;28;1340;-76
2022/07/20 00:14:16;;;;;;;7.32;3.30;;;;;;;26.78;31.58;99417.63;343771;28;1076;-76
2022/07/20 00:14:28;;;;;;;8.85;3.28;;;;;;;26.83;31.70;99419.81;343463;28;1827;-75
2022/07/20 00:14:40;;;;;;;8.63;3.20;;;;;;;26.83;31.81;99417.16;343261;28;1643;-76
2022/07/20 00:14:53;;;;;;;8.98;3.17;;;;;;;26.81;31.55;99416.47;343011;28;1448;-75
2022/07/20 00:15:05;;;;;;;7.90;3.30;;;;;;;26.82;31.49;99419.00;343300;28;1609;-76
2022/07/20 00:15:17;;;;;;;5.80;3.20;;;;;;;26.79;30.67;99413.13;344831;28;2220;-75
2022/07/20 00:15:29;;;;;;;4.57;3.20;;;;;;;26.82;31.34;99418.13;345056;28;1890;-75
2022/07/20 00:15:42;;;;;;;4.63;3.10;;;;;;;26.78;31.54;99416.78;346249;28;1764;-75
2022/07/20 00:15:55;;;;;;;4.68;3.10;;;;;;;26.81;31.34;99411.16;346258;28;1058;-75
2022/07/20 00:16:07;;;;;;;4.80;3.15;;;;;;;26.83;31.35;99409.16;345108;28;1070;-76
2022/07/20 00:16:23;;;;;;;4.70;3.22;;;;;;;26.83;31.68;99417.16;344714;28;1244;-75
2022/07/20 00:16:35;;;;;;;4.90;3.42;;;;;;;26.81;31.34;99416.47;344482;28;2315;-75
2022/07/20 00:16:48;;;;;;;5.38;3.40;;;;;;;26.83;31.44;99419.81;345930;28;1827;-75
2022/07/20 00:17:00;;;;;;;5.95;3.30;;;;;;;26.86;31.60;99414.16;346134;28;1226;-75
2022/07/20 00:17:13;;;;;;;5.65;3.08;;;;;;;26.89;31.62;99421.84;345671;28;1859;-75
2022/07/20 00:17:25;;;;;;;8.35;3.28;;;;;;;26.82;30.73;99419.00;344302;28;1928;-75
2022/07/20 00:17:37;;;;;;;9.30;3.30;;;;;;;26.85;30.68;99417.81;344290;28;1644;-75
2022/07/20 00:17:49;;;;;;;8.48;3.20;;;;;;;26.87;31.76;99416.66;345205;28;1065;-76
2022/07/20 00:18:01;;;;;;;5.70;2.95;;;;;;;26.90;31.29;99412.84;344957;28;1293;-76
2022/07/20 00:18:14;;;;;;;4.88;2.95;;;;;;;26.90;31.95;99418.16;343847;28;1019;-76
2022/07/20 00:18:25;;;;;;;4.10;2.90;;;;;;;26.92;32.05;99421.50;343683;28;1075;-76
2022/07/20 00:18:37;;;;;;;4.40;3.03;;;;;;;26.94;31.56;99426.69;343004;28;1789;-76
2022/07/20 00:18:50;;;;;;;4.57;3.17;;;;;;;26.97;31.85;99418.38;342773;28;1898;-77
2022/07/20 00:19:03;;;;;;;4.65;3.20;;;;;;;26.98;31.90;99412.03;344022;28;2011;-75
2022/07/20 00:19:15;;;;;;;4.53;3.20;;;;;;;26.98;31.48;99417.38;343336;28;1051;-75
2022/07/20 00:19:27;;;;;;;5.65;3.15;;;;;;;26.99;31.15;99414.53;342293;28;1051;-75
2022/07/20 00:19:39;;;;;;;6.93;3.30;;;;;;;26.92;30.86;99418.84;341691;28;1574;-75
2022/07/20 00:19:51;;;;;;;7.68;3.38;;;;;;;26.95;31.51;99426.53;342146;28;1070;-75
2022/07/20 00:20:04;;;;;;;7.28;3.30;;;;;;;26.95;30.83;99420.38;342423;28;1347;-75
2022/07/20 00:20:16;;;;;;;4.70;3.25;;;;;;;26.84;30.92;99416.16;342150;28;1055;-75
2022/07/20 00:20:28;;;;;;;4.60;3.20;;;;;;;26.80;31.00;99425.47;342347;28;1634;-75
2022/07/20 00:20:40;;;;;;;5.13;3.30;;;;;;;26.85;31.20;99423.16;341909;28;1602;-75
2022/07/20 00:20:52;;;;;;;5.03;3.25;;;;;;;26.90;30.60;99418.16;343166;28;1115;-76
2022/07/20 00:21:05;;;;;;;4.95;3.20;;;;;;;26.90;31.48;99420.84;343807;28;1543;-76
2022/07/20 00:21:17;;;;;;;5.25;3.30;;;;;;;26.83;31.83;99415.31;344092;28;1695;-76
2022/07/20 00:21:29;;;;;;;5.38;3.25;;;;;;;26.87;31.61;99421.16;343372;28;1775;-76
2022/07/20 00:21:41;;;;;;;7.78;3.20;;;;;;;26.89;31.35;99420.00;345218;28;1678;-76
2022/07/20 00:21:53;;;;;;;7.50;3.28;;;;;;;26.92;31.72;99413.50;345911;28;1119;-76
2022/07/20 00:22:05;;;;;;;7.30;3.30;;;;;;;26.94;32.41;99421.34;345354;28;1064;-76
2022/07/20 00:22:17;;;;;;;8.05;3.20;;;;;;;26.95;32.46;99417.69;344998;28;1075;-76
2022/07/20 00:22:29;;;;;;;6.45;3.15;;;;;;;26.93;31.57;99419.69;344557;28;1944;-76
2022/07/20 00:22:41;;;;;;;5.15;3.15;;;;;;;26.98;31.42;99412.84;343809;28;1674;-76
2022/07/20 00:22:53;;;;;;;4.80;3.25;;;;;;;26.98;31.91;99418.19;345476;28;1577;-76
2022/07/20 00:23:06;;;;;;;5.85;3.05;;;;;;;26.97;32.36;99416.53;344193;28;1943;-75
2022/07/20 00:23:18;;;;;;;7.57;3.35;;;;;;;27.00;31.50;99426.88;343562;28;1277;-74
2022/07/20 00:23:30;;;;;;;7.78;3.60;;;;;;;26.99;31.84;99419.88;343018;28;1688;-75
2022/07/20 00:23:42;;;;;;;7.13;3.65;;;;;;;27.01;31.53;99414.38;342580;28;1062;-74
2022/07/20 00:23:54;;;;;;;6.57;3.50;;;;;;;27.01;31.54;99417.88;344506;28;1099;-74
2022/07/20 00:24:06;;;;;;;8.68;3.30;;;;;;;26.98;31.81;99417.38;342300;28;1257;-74
2022/07/20 00:24:18;;;;;;;7.03;3.25;;;;;;;26.97;31.34;99421.88;342762;28;1055;-74
2022/07/20 00:24:30;;;;;;;7.28;3.53;;;;;;;26.97;31.16;99411.22;342638;28;1657;-75
2022/07/20 00:24:42;;;;;;;6.43;3.65;;;;;;;26.94;31.57;99411.50;343952;28;1066;-74
2022/07/20 00:24:54;;;;;;;6.25;3.67;;;;;;;26.95;32.11;99418.53;342805;28;1103;-74
2022/07/20 00:25:07;;;;;;;5.38;3.40;;;;;;;26.95;31.51;99413.19;341768;28;915;-74
2022/07/20 00:25:19;;;;;;;5.30;3.22;;;;;;;26.96;31.35;99409.50;342317;28;1206;-75
2022/07/20 00:25:31;;;;;;;5.25;3.22;;;;;;;26.96;31.68;99420.19;342643;28;1605;-75
2022/07/20 00:25:43;;;;;;;6.97;3.47;;;;;;;26.97;31.91;99418.38;343681;28;1796;-75
2022/07/20 00:25:55;;;;;;;9.57;3.47;;;;;;;26.89;31.55;99411.19;343752;28;1079;-76
2022/07/20 00:26:08;;;;;;;8.95;3.28;;;;;;;26.91;31.08;99411.84;343775;28;1079;-74
2022/07/20 00:26:20;;;;;;;6.32;3.20;;;;;;;26.78;30.79;99416.78;344112;28;1558;-77
2022/07/20 00:26:32;;;;;;;5.57;3.58;;;;;;;26.79;31.62;99413.13;342713;28;1748;-76
2022/07/20 00:26:44;;;;;;;7.18;3.63;;;;;;;26.83;31.30;99414.50;342431;28;1618;-77
2022/07/20 00:26:56;;;;;;;8.60;3.78;;;;;;;26.89;31.08;99416.50;343603;28;1020;-78
2022/07/20 00:27:08;;;;;;;7.07;3.47;;;;;;;26.93;31.33;99414.38;343739;28;1003;-75
2022/07/20 00:27:20;;;;;;;7.13;3.35;;;;;;;26.95;30.83;99418.53;343695;28;1340;-77
2022/07/20 00:27:32;;;;;;;6.03;3.20;;;;;;;26.97;31.22;99421.03;343533;28;1635;-77
2022/07/20 00:27:43;;;;;;;5.22;3.10;;;;;;;26.96;31.98;99414.84;343215;28;2108;-76
2022/07/20 00:27:56;;;;;;;5.88;3.15;;;;;;;27.00;31.23;99410.03;344298;28;1962;-77
2022/07/20 00:28:07;;;;;;;5.70;3.30;;;;;;;27.00;31.56;99421.53;342666;28;1085;-76
2022/07/20 00:28:20;;;;;;;4.95;3.38;;;;;;;27.01;31.48;99407.22;342357;28;1189;-76
2022/07/20 00:28:32;;;;;;;4.13;3.30;;;;;;;27.03;31.66;99420.41;342419;28;1661;-77
2022/07/20 00:28:44;;;;;;;4.63;3.30;;;;;;;27.03;32.15;99413.22;342893;28;1698;-75
2022/07/20 00:28:59;;;;;;;6.25;3.22;;;;;;;27.04;32.07;99406.03;342648;28;1278;-74
2022/07/20 00:29:11;;;;;;;6.43;3.20;;;;;;;27.05;32.06;99413.91;342336;28;1709;-76
2022/07/20 00:29:23;;;;;;;5.38;3.30;;;;;;;27.06;31.67;99409.38;342389;28;1014;-74
2022/07/20 00:29:35;;;;;;;5.35;3.22;;;;;;;27.05;31.92;99419.22;342888;28;1681;-74
2022/07/20 00:29:47;;;;;;;5.00;3.30;;;;;;;27.01;31.36;99412.56;342871;28;1657;-74
2022/07/20 00:29:59;;;;;;;5.95;3.33;;;;;;;26.99;31.09;99414.53;342473;28;1215;-74
2022/07/20 00:30:12;;;;;;;5.80;3.20;;;;;;;26.99;31.70;99419.88;342371;28;1658;-74
2022/07/20 00:30:24;;;;;;;6.15;3.20;;;;;;;27.00;31.84;99416.19;343966;28;1728;-76
2022/07/20 00:30:36;;;;;;;5.40;3.15;;;;;;;26.99;32.52;99419.88;343942;28;1176;-75
2022/07/20 00:30:48;;;;;;;6.15;3.10;;;;;;;27.00;32.30;99418.88;344117;28;1645;-76
2022/07/20 00:31:00;;;;;;;4.88;3.10;;;;;;;27.00;32.20;99426.88;344441;28;1323;-74
2022/07/20 00:31:12;;;;;;;5.38;3.42;;;;;;;27.00;31.70;99405.53;344064;28;1148;-74
2022/07/20 00:31:24;;;;;;;6.07;3.50;;;;;;;26.94;31.28;99416.03;343930;28;1197;-74
2022/07/20 00:31:36;;;;;;;6.82;3.50;;;;;;;26.95;31.56;99409.69;342825;28;2032;-74
2022/07/20 00:31:48;;;;;;;6.05;3.53;;;;;;;26.92;31.38;99413.50;343231;28;1561;-74
2022/07/20 00:32:00;;;;;;;5.65;3.50;;;;;;;26.91;31.06;99411.84;343221;28;1125;-75
2022/07/20 00:32:12;;;;;;;6.57;3.35;;;;;;;26.85;31.94;99412.50;343553;28;2081;-74
2022/07/20 00:32:24;;;;;;;7.28;3.17;;;;;;;26.87;31.52;99416.66;345383;28;1132;-74
2022/07/20 00:32:37;;;;;;;6.95;3.28;;;;;;;26.88;31.34;99417.50;343302;28;1701;-74
2022/07/20 00:32:50;;;;;;;5.95;3.40;;;;;;;26.90;31.42;99415.50;344672;28;1768;-74
2022/07/20 00:33:02;;;;;;;4.57;3.25;;;;;;;26.93;31.47;99420.53;344193;28;1191;-77
2022/07/20 00:33:14;;;;;;;4.95;3.33;;;;;;;26.96;31.80;99417.53;344057;28;1024;-78
2022/07/20 00:33:26;;;;;;;6.32;3.33;;;;;;;26.97;31.86;99415.72;343854;28;1246;-79
2022/07/20 00:33:38;;;;;;;7.00;3.35;;;;;;;26.97;32.02;99411.22;343337;28;1775;-75
2022/07/20 00:33:50;;;;;;;8.05;3.42;;;;;;;26.99;32.09;99419.88;343296;28;1804;-75
2022/07/20 00:34:03;;;;;;;7.78;3.28;;;;;;;26.99;31.58;99409.22;345147;28;1366;-75
2022/07/20 00:34:15;;;;;;;6.90;3.30;;;;;;;27.00;30.90;99410.03;344738;28;1260;-76
2022/07/20 00:34:29;;;;;;;6.40;3.40;;;;;;;27.02;31.16;99408.88;345231;28;1123;-77
2022/07/20 00:34:41;;;;;;;6.18;3.40;;;;;;;27.02;31.07;99408.88;344934;28;1788;-76
2022/07/20 00:34:53;;;;;;;5.85;3.45;;;;;;;27.01;30.92;99404.56;345740;28;1078;-77
2022/07/20 00:35:07;;;;;;;7.25;3.50;;;;;;;27.02;31.37;99408.88;345056;28;2036;-76
2022/07/20 00:35:23;;;;;;;8.15;3.53;;;;;;;27.03;31.09;99407.88;343681;28;1220;-76
2022/07/20 00:35:35;;;;;;;6.43;3.30;;;;;;;27.05;31.22;99408.56;343751;28;1941;-76
2022/07/20 00:35:47;;;;;;;4.80;3.28;;;;;;;27.06;31.54;99402.25;344833;28;1909;-77
2022/07/20 00:35:59;;;;;;;5.25;3.25;;;;;;;27.05;32.00;99408.56;344940;28;1657;-76
2022/07/20 00:36:11;;;;;;;5.93;3.03;;;;;;;27.06;31.61;99406.72;343512;28;1166;-77
2022/07/20 00:36:23;;;;;;;5.35;3.08;;;;;;;27.00;31.29;99410.88;343540;28;1221;-77
2022/07/20 00:36:35;;;;;;;6.22;3.30;;;;;;;27.00;30.81;99410.88;342730;28;1775;-77
2022/07/20 00:36:47;;;;;;;5.22;3.40;;;;;;;27.01;31.39;99407.22;343024;28;1873;-77
2022/07/20 00:36:59;;;;;;;4.30;3.25;;;;;;;27.02;31.56;99408.88;343705;28;1237;-76
2022/07/20 00:37:11;;;;;;;4.00;3.10;;;;;;;27.03;31.68;99410.56;343705;28;1215;-76
2022/07/20 00:37:23;;;;;;;4.43;3.30;;;;;;;27.03;32.67;99405.22;343317;28;2199;-75
2022/07/20 00:37:35;;;;;;;5.40;3.40;;;;;;;27.06;32.06;99410.25;342886;28;2149;-76
2022/07/20 00:37:47;;;;;;;5.85;3.33;;;;;;;27.06;31.53;99410.25;342721;28;1760;-76
2022/07/20 00:37:59;;;;;;;8.13;3.10;;;;;;;27.07;31.74;99409.22;343886;28;1392;-76
2022/07/20 00:38:11;;;;;;;6.40;3.10;;;;;;;27.07;31.40;99406.56;343134;28;1757;-76
2022/07/20 00:38:23;;;;;;;7.45;3.25;;;;;;;27.06;31.93;99404.91;344178;28;2076;-76
2022/07/20 00:38:35;;;;;;;6.55;3.53;;;;;;;27.06;31.79;99404.91;344415;28;2156;-76
2022/07/20 00:38:47;;;;;;;6.68;3.47;;;;;;;27.07;31.73;99409.22;344248;28;2014;-74
2022/07/20 00:39:00;;;;;;;7.13;3.67;;;;;;;27.02;31.28;99403.53;345703;28;1310;-76
2022/07/20 00:39:12;;;;;;;7.25;3.70;;;;;;;27.03;31.14;99405.22;345072;28;1197;-76
2022/07/20 00:39:24;;;;;;;6.05;3.60;;;;;;;26.94;31.64;99403.50;344648;28;1180;-77
2022/07/20 00:39:36;;;;;;;5.35;3.40;;;;;;;26.95;31.43;99405.19;343132;28;1764;-76
2022/07/20 00:39:48;;;;;;;5.80;3.38;;;;;;;26.94;31.45;99405.34;343932;28;1774;-76
2022/07/20 00:40:01;;;;;;;5.90;3.30;;;;;;;26.96;31.78;99406.84;345847;28;1318;-77
2022/07/20 00:40:14;;;;;;;6.43;3.40;;;;;;;26.93;30.99;99404.53;346223;28;1195;-74
2022/07/20 00:40:26;;;;;;;9.52;3.40;;;;;;;26.86;30.58;99403.47;345968;28;1160;-75
2022/07/20 00:40:38;;;;;;;9.48;3.40;;;;;;;26.82;30.87;99407.47;343998;28;2022;-75
2022/07/20 00:40:50;;;;;;;6.57;3.40;;;;;;;26.88;31.12;99407.69;344924;28;1469;-74
2022/07/20 00:41:02;;;;;;;4.18;3.30;;;;;;;26.90;31.69;99410.16;344627;28;2007;-75
2022/07/20 00:41:14;;;;;;;4.05;3.35;;;;;;;26.94;31.28;99406.19;344832;28;1790;-75
2022/07/20 00:41:26;;;;;;;5.63;3.22;;;;;;;26.96;31.05;99408.69;346562;28;1049;-74
2022/07/20 00:41:38;;;;;;;5.55;3.30;;;;;;;26.95;31.35;99407.88;344142;28;1987;-75
2022/07/20 00:41:50;;;;;;;5.03;3.30;;;;;;;26.98;31.44;99401.34;344435;28;1656;-74
2022/07/20 00:42:10;;;;;;;5.40;3.40;;;;;;;27.01;31.27;99396.53;342783;28;843;-75
2022/07/20 00:42:22;;;;;;;5.80;3.40;;;;;;;26.97;31.19;99405.03;342842;28;1112;-75
2022/07/20 00:42:35;;;;;;;6.43;3.38;;;;;;;26.91;30.89;99406.50;342536;28;1831;-74
2022/07/20 00:42:47;;;;;;;5.50;3.30;;;;;;;26.95;31.13;99409.69;343792;28;1827;-75
2022/07/20 00:42:59;;;;;;;4.45;3.50;;;;;;;26.98;31.33;99404.84;345833;28;1327;-75
2022/07/20 00:43:11;;;;;;;5.22;3.38;;;;;;;26.97;31.82;99411.22;344855;28;1753;-75
2022/07/20 00:43:23;;;;;;;5.60;3.33;;;;;;;26.97;31.73;99413.88;344443;28;1705;-75
2022/07/20 00:44:05;;;;;;;6.38;3.28;;;;;;;26.95;30.46;99412.38;343657;28;1845;-75
2022/07/20 00:44:17;;;;;;;5.10;3.53;;;;;;;26.98;30.98;99404.03;345136;28;1833;-75
2022/07/20 00:44:29;;;;;;;5.65;3.47;;;;;;;26.99;31.48;99405.72;346073;28;1049;-75
2022/07/20 00:44:41;;;;;;;6.05;3.40;;;;;;;26.93;31.79;99409.84;343885;28;1829;-74
2022/07/20 00:44:53;;;;;;;8.15;3.42;;;;;;;26.96;31.65;99409.50;344680;28;1890;-74
2022/07/20 00:45:07;;;;;;;7.50;3.20;;;;;;;26.97;31.52;99411.22;344592;28;1725;-75
2022/07/20 00:45:20;;;;;;;6.22;3.15;;;;;;;26.98;31.77;99410.19;344599;28;1228;-74
2022/07/20 00:45:32;;;;;;;6.68;3.20;;;;;;;26.99;31.89;99409.22;342328;28;2380;-74
2022/07/20 00:45:45;;;;;;;6.00;3.20;;;;;;;26.98;31.85;99407.53;343725;28;1877;-74
2022/07/20 00:45:57;;;;;;;6.20;3.30;;;;;;;26.97;31.91;99411.22;343809;28;1332;-74
2022/07/20 00:46:09;;;;;;;6.30;3.40;;;;;;;26.99;32.19;99408.38;343648;28;1726;-74
2022/07/20 00:46:21;;;;;;;6.03;3.20;;;;;;;27.00;31.74;99405.53;342445;28;1066;-74
2022/07/20 00:46:37;;;;;;;7.22;3.22;;;;;;;26.98;31.69;99415.53;342589;28;1847;-74
2022/07/20 00:46:54;;;;;;;7.47;3.53;;;;;;;26.97;31.46;99413.03;344000;28;1287;-74
2022/07/20 00:47:06;;;;;;;5.72;3.38;;;;;;;26.97;32.11;99413.03;342318;28;1062;-74
2022/07/20 00:47:18;;;;;;;6.18;3.58;;;;;;;26.99;32.01;99409.22;342427;28;1301;-75
2022/07/20 00:47:30;;;;;;;7.07;3.63;;;;;;;26.98;32.16;99406.69;341751;28;2048;-75
2022/07/20 00:47:42;;;;;;;6.90;3.45;;;;;;;26.98;31.70;99417.38;343255;28;1687;-75
2022/07/20 00:47:54;;;;;;;5.93;3.17;;;;;;;26.97;31.52;99413.03;343661;28;1040;-75
2022/07/20 00:48:06;;;;;;;5.45;3.20;;;;;;;26.97;31.88;99411.22;342885;28;1365;-75
2022/07/20 00:48:18;;;;;;;6.43;3.38;;;;;;;26.97;31.81;99424.53;343730;28;1167;-75
2022/07/20 00:48:30;;;;;;;6.40;3.40;;;;;;;26.94;31.98;99419.50;342921;28;2043;-75
2022/07/20 00:48:42;;;;;;;6.15;3.42;;;;;;;26.96;31.62;99414.84;343250;28;1786;-75
2022/07/20 00:48:54;;;;;;;5.85;3.20;;;;;;;26.92;31.48;99412.69;345653;28;1044;-75
2022/07/20 00:49:08;;;;;;;6.13;3.13;;;;;;;26.96;31.66;99416.69;344015;28;1082;-76
2022/07/20 00:49:20;;;;;;;5.38;3.10;;;;;;;26.96;31.70;99425.53;343719;28;1060;-76
2022/07/20 00:49:32;;;;;;;5.07;3.28;;;;;;;26.94;31.93;99416.84;343314;28;1799;-76
2022/07/20 00:49:44;;;;;;;5.18;3.33;;;;;;;26.95;31.71;99421.19;344860;28;1419;-76
2022/07/20 00:49:56;;;;;;;8.00;3.38;;;;;;;26.94;31.93;99419.50;345859;28;1324;-76
2022/07/20 00:50:11;;;;;;;9.20;3.40;;;;;;;26.94;31.57;99422.19;345071;28;1074;-76
2022/07/20 00:50:24;;;;;;;8.07;3.15;;;;;;;26.95;31.77;99423.03;343722;28;1106;-76
2022/07/20 00:50:37;;;;;;;6.47;2.95;;;;;;;26.96;31.73;99417.53;343822;28;1772;-76
2022/07/20 00:50:49;;;;;;;7.15;3.10;;;;;;;26.95;32.14;99418.53;344933;28;1931;-76
2022/07/20 00:51:01;;;;;;;6.55;3.35;;;;;;;26.97;31.91;99423.72;344171;28;1251;-76
2022/07/20 00:51:13;;;;;;;6.18;3.40;;;;;;;26.96;31.53;99420.19;343741;28;1079;-76
2022/07/20 00:51:26;;;;;;;5.35;3.33;;;;;;;26.94;32.13;99422.19;343641;28;1199;-76
2022/07/20 00:51:40;;;;;;;6.13;3.22;;;;;;;26.94;32.43;99416.84;342950;28;1928;-76
2022/07/20 00:51:52;;;;;;;6.97;3.15;;;;;;;26.91;33.40;99422.53;344048;28;1108;-76
2022/07/20 00:52:05;;;;;;;6.38;3.05;;;;;;;26.91;32.89;99422.53;343569;28;1384;-76
2022/07/20 00:52:17;;;;;;;5.75;3.03;;;;;;;26.90;32.74;99426.16;343894;28;1687;-76
2022/07/20 00:52:29;;;;;;;6.07;3.30;;;;;;;26.86;32.57;99422.16;343867;28;1623;-76
2022/07/20 00:52:41;;;;;;;4.50;3.20;;;;;;;26.80;32.09;99420.13;343423;28;1863;-76
2022/07/20 00:52:54;;;;;;;4.30;3.08;;;;;;;26.83;32.21;99419.81;343031;28;1371;-76
2022/07/20 00:53:07;;;;;;;4.50;3.05;;;;;;;26.73;31.65;99424.44;343923;28;1135;-76
2022/07/20 00:53:19;;;;;;;5.43;3.13;;;;;;;26.75;32.01;99422.47;344034;28;1927;-76
2022/07/20 00:53:37;;;;;;;7.13;3.30;;;;;;;26.77;31.84;99426.63;343899;28;1154;-76
2022/07/20 00:53:49;;;;;;;6.32;3.28;;;;;;;26.79;32.07;99423.81;344050;28;1018;-76
2022/07/20 00:54:04;;;;;;;5.13;3.30;;;;;;;26.80;31.96;99422.78;343414;28;1743;-76
2022/07/20 00:54:16;;;;;;;5.72;3.30;;;;;;;26.80;32.71;99421.00;345308;28;1004;-76
2022/07/20 00:54:28;;;;;;;6.05;3.30;;;;;;;26.81;32.11;99416.47;345324;28;1113;-76
2022/07/20 00:54:41;;;;;;;7.65;3.35;;;;;;;26.83;32.78;99425.16;343159;28;1778;-76
2022/07/20 00:54:54;;;;;;;9.10;3.58;;;;;;;26.81;33.30;99411.16;343766;28;1220;-76
2022/07/20 00:55:07;;;;;;;7.65;3.42;;;;;;;26.83;33.29;99419.81;343983;28;1226;-76
2022/07/20 00:55:20;;;;;;;6.18;3.10;;;;;;;26.82;32.71;99419.00;344164;28;1401;-76
2022/07/20 00:55:33;;;;;;;6.22;3.13;;;;;;;26.82;32.49;99428.81;344242;28;1846;-76
2022/07/20 00:55:45;;;;;;;5.95;3.20;;;;;;;26.81;32.60;99422.66;345972;28;1686;-76
2022/07/20 00:55:57;;;;;;;6.68;3.45;;;;;;;26.80;33.18;99426.31;345899;28;1616;-76
2022/07/20 00:56:10;;;;;;;5.15;3.53;;;;;;;26.81;31.81;99422.66;346318;28;1059;-76
2022/07/20 00:56:22;;;;;;;4.38;3.30;;;;;;;26.81;32.04;99427.16;346319;28;1130;-76
2022/07/20 00:56:35;;;;;;;4.75;3.30;;;;;;;26.80;31.81;99421.00;345488;28;2163;-76
2022/07/20 00:56:47;;;;;;;6.00;3.30;;;;;;;26.80;31.88;99422.78;345547;28;1822;-76
2022/07/20 00:57:00;;;;;;;7.25;3.20;;;;;;;26.75;32.01;99427.78;346903;28;1259;-76
2022/07/20 00:57:12;;;;;;;6.68;3.25;;;;;;;26.76;33.27;99427.59;346166;28;1989;-76
2022/07/20 00:57:24;;;;;;;7.07;3.30;;;;;;;26.77;33.05;99420.47;346308;28;1106;-76
2022/07/20 00:57:36;;;;;;;7.53;3.40;;;;;;;26.69;33.08;99418.59;344070;28;1711;-76
2022/07/20 00:57:48;;;;;;;6.85;3.45;;;;;;;26.72;32.39;99422.75;343676;28;1796;-76
2022/07/20 00:58:01;;;;;;;5.75;3.50;;;;;;;26.72;33.03;99425.44;342965;28;1258;-76
2022/07/20 00:58:13;;;;;;;6.10;3.50;;;;;;;26.73;33.31;99424.44;343604;28;1860;-76
2022/07/20 00:58:25;;;;;;;8.15;3.63;;;;;;;26.67;32.67;99418.75;343679;28;1051;-76
2022/07/20 00:58:37;;;;;;;8.48;3.67;;;;;;;26.65;32.60;99423.41;343755;28;1177;-76
2022/07/20 00:58:49;;;;;;;8.57;3.60;;;;;;;26.68;32.47;99423.09;342766;28;1516;-76
2022/07/20 00:59:04;;;;;;;8.27;3.35;;;;;;;26.69;32.37;99422.09;342609;28;1838;-76
2022/07/20 00:59:16;;;;;;;6.78;3.40;;;;;;;26.67;31.77;99424.06;343360;28;1493;-76
2022/07/20 00:59:28;;;;;;;6.05;3.35;;;;;;;26.68;32.27;99423.09;343190;28;1625;-76
2022/07/20 00:59:40;;;;;;;6.70;3.28;;;;;;;26.68;32.38;99419.56;343380;28;1614;-76
2022/07/20 00:59:52;;;;;;;7.15;3.20;;;;;;;26.67;32.40;99424.06;343790;28;1156;-76
2022/07/20 01:00:09;;;;;;;8.52;3.30;;;;;;;26.68;32.24;99423.09;343434;28;1732;-76
2022/07/20 01:00:21;;;;;;;6.10;3.00;;;;;;;26.68;32.40;99423.09;345575;28;1031;-76
2022/07/20 01:00:33;;;;;;;5.38;3.05;;;;;;;26.69;32.70;99419.41;344247;28;2112;-76
2022/07/20 01:00:45;;;;;;;6.10;3.22;;;;;;;26.67;32.24;99421.41;342571;28;1790;-76
2022/07/20 01:00:57;;;;;;;6.93;3.47;;;;;;;26.61;32.11;99422.03;343621;28;1119;-76
2022/07/20 01:01:10;;;;;;;5.90;3.33;;;;;;;26.64;32.10;99420.88;343696;28;1091;-76
2022/07/20 01:01:22;;;;;;;4.80;3.28;;;;;;;26.64;32.30;99418.22;342826;28;1782;-76
2022/07/20 01:01:35;;;;;;;3.92;3.10;;;;;;;26.66;32.31;99418.91;344237;28;1843;-76
2022/07/20 01:01:47;;;;;;;5.03;3.08;;;;;;;26.66;32.86;99419.75;344897;28;1030;-76
2022/07/20 01:01:59;;;;;;;7.03;3.22;;;;;;;26.65;33.32;99423.41;344658;28;1234;-76
2022/07/20 01:02:11;;;;;;;7.65;3.50;;;;;;;26.59;32.19;99418.69;344749;28;1226;-76
2022/07/20 01:02:23;;;;;;;6.78;3.20;;;;;;;26.60;32.66;99417.72;344750;28;1075;-74
2022/07/20 01:02:35;;;;;;;5.57;3.10;;;;;;;26.61;32.41;99419.38;343846;28;1621;-77
2022/07/20 01:02:47;;;;;;;5.22;3.15;;;;;;;26.62;32.20;99417.53;344814;28;1376;-77
2022/07/20 01:02:59;;;;;;;4.53;3.20;;;;;;;26.61;31.73;99416.72;344725;28;1463;-74
2022/07/20 01:03:11;;;;;;;4.80;3.20;;;;;;;26.61;32.04;99416.72;343546;28;1757;-75
2022/07/20 01:03:24;;;;;;;5.35;3.15;;;;;;;26.61;32.32;99421.22;343659;28;1779;-74